Time;durP1;ratioP1;P1;durP2;ratioP2;P2;SDS_P1;SDS_P2;PMS_P1;PMS_P2;Temp;Humidity;BMP_temperature;BMP_pressure;BME280_temperature;BME280_humidity;BME280_pressure;Samples;Min_cycle;Max_cycle;Signal;HPM_P1;HPM_P2
2021/04/11 00:09:48;;;;;;;10.60;4.35;;;;;;;8.94;72.38;99627.34;20833221;28;20045;-69
2021/04/11 00:19:49;;;;;;;13.18;5.07;;;;;;;8.72;73.06;99621.72;20832239;28;20072;-69
2021/04/11 00:29:49;;;;;;;9.05;4.22;;;;;;;8.51;73.88;99608.16;20832134;28;20045;-69
2021/04/11 00:39:51;;;;;;;12.07;4.93;;;;;;;8.49;74.62;99605.66;20831423;28;20045;-69
2021/04/11 00:49:52;;;;;;;10.23;4.90;;;;;;;8.42;75.09;99595.69;20830802;28;20425;-69
2021/04/11 00:59:53;;;;;;;8.55;4.20;;;;;;;8.33;75.56;99589.22;20830337;28;20546;-70
2021/04/11 01:09:55;;;;;;;9.68;4.40;;;;;;;8.22;76.30;99568.13;20827712;28;20045;-70
2021/04/11 01:19:56;;;;;;;9.02;4.70;;;;;;;8.24;75.91;99574.06;20829041;28;20416;-69
2021/04/11 01:29:58;;;;;;;7.80;4.10;;;;;;;8.02;75.95;99573.63;20828615;28;20055;-69
2021/04/11 01:39:59;;;;;;;8.93;4.18;;;;;;;7.89;76.68;99560.44;20826986;28;20050;-69
2021/04/11 01:50:00;;;;;;;8.25;3.88;;;;;;;7.82;75.71;99550.47;20840401;28;20053;-69
2021/04/11 02:00:17;;;;;;;8.82;3.80;;;;;;;7.64;78.20;99549.72;20855311;28;20112;-69
2021/04/11 02:10:24;;;;;;;7.80;3.83;;;;;;;7.54;78.12;99549.41;20826510;28;20497;-69
2021/04/11 02:20:28;;;;;;;7.07;3.67;;;;;;;7.60;78.14;99543.88;20823904;28;20049;-69
2021/04/11 02:30:30;;;;;;;9.55;4.20;;;;;;;7.65;78.80;99549.66;20822767;28;20100;-69
2021/04/11 02:40:44;;;;;;;9.10;4.10;;;;;;;7.94;77.67;99532.38;20822591;28;20504;-69
2021/04/11 02:50:44;;;;;;;7.30;3.88;;;;;;;8.19;77.39;99518.75;20821848;28;20118;-69
2021/04/11 03:00:49;;;;;;;7.47;3.80;;;;;;;8.42;76.25;99520.91;20820860;28;20129;-70
2021/04/11 03:11:15;;;;;;;8.73;3.80;;;;;;;8.57;75.62;99513.94;20820505;28;20460;-69
2021/04/11 03:21:16;;;;;;;9.53;3.97;;;;;;;8.69;76.65;99515.78;20820157;28;20053;-70
2021/04/11 03:31:36;;;;;;;7.03;3.85;;;;;;;8.78;78.19;99527.44;20818243;28;20104;-69
2021/04/11 03:41:39;;;;;;;8.02;3.45;;;;;;;8.93;77.29;99505.63;20817822;28;20136;-70
2021/04/11 03:51:43;;;;;;;5.55;3.33;;;;;;;9.07;77.67;99510.81;20818609;28;20115;-69
2021/04/11 04:01:49;;;;;;;6.50;4.18;;;;;;;9.19;75.96;99523.13;20817695;28;20056;-70
2021/04/11 04:12:08;;;;;;;6.18;3.78;;;;;;;9.01;78.80;99519.88;20817935;28;20498;-70
2021/04/11 04:22:47;;;;;;;10.52;5.65;;;;;;;8.92;79.70;99520.44;20817486;28;20493;-70
2021/04/11 04:33:14;;;;;;;6.93;3.88;;;;;;;8.96;80.17;99521.94;20816723;28;20053;-69
2021/04/11 04:43:20;;;;;;;9.55;4.07;;;;;;;8.95;81.38;99519.41;20827259;28;22028;-70
2021/04/11 04:53:41;;;;;;;8.15;3.83;;;;;;;9.01;81.34;99506.81;20831929;28;20049;-69
2021/04/11 05:03:46;;;;;;;7.72;3.28;;;;;;;9.02;80.14;99515.50;20829988;28;20565;-68
2021/04/11 05:13:52;;;;;;;7.33;3.80;;;;;;;9.02;80.11;99503.28;20831178;28;20472;-68
2021/04/11 05:24:00;;;;;;;5.90;3.53;;;;;;;8.81;82.24;99514.19;20827452;28;20493;-68
2021/04/11 05:34:05;;;;;;;9.20;3.55;;;;;;;8.83;82.80;99517.56;20827888;28;20097;-68
2021/04/11 05:44:17;;;;;;;8.97;3.77;;;;;;;9.08;82.92;99511.66;20827846;28;20057;-68
2021/04/11 05:54:22;;;;;;;10.13;4.50;;;;;;;9.22;82.04;99519.47;20826015;28;20123;-68
2021/04/11 06:04:42;;;;;;;8.40;4.23;;;;;;;9.80;79.97;99534.91;20824785;28;20065;-68
2021/04/11 06:14:54;;;;;;;8.02;3.75;;;;;;;10.20;79.78;99554.91;20824914;28;20045;-68
2021/04/11 06:25:03;;;;;;;6.75;4.00;;;;;;;10.74;75.75;99533.81;20823678;28;20440;-68
2021/04/11 06:35:09;;;;;;;6.53;3.35;;;;;;;11.04;73.60;99538.69;20822425;28;20069;-68
2021/04/11 06:45:16;;;;;;;7.10;3.50;;;;;;;11.58;70.70;99541.78;20821972;28;20551;-68
2021/04/11 06:55:26;;;;;;;6.45;3.08;;;;;;;11.71;69.81;99558.31;20821804;28;20041;-69
2021/04/11 07:05:39;;;;;;;5.63;2.92;;;;;;;12.07;69.00;99552.22;20789842;28;20048;-69
2021/04/11 07:15:55;;;;;;;7.65;3.15;;;;;;;12.46;66.79;99553.63;20821367;28;20558;-69
2021/04/11 07:26:11;;;;;;;8.00;3.42;;;;;;;13.28;63.79;99542.03;20909220;28;20048;-69
2021/04/11 07:36:28;;;;;;;7.85;2.60;;;;;;;13.51;61.63;99542.84;20929514;28;20056;-69
2021/04/11 07:46:45;;;;;;;5.90;2.22;;;;;;;13.41;62.07;99545.34;20750566;28;20084;-68
2021/04/11 07:57:05;;;;;;;6.75;2.40;;;;;;;13.75;60.47;99558.44;20737808;28;20457;-69
2021/04/11 08:07:28;;;;;;;6.82;2.88;;;;;;;14.00;61.24;99550.22;20737066;28;20058;-69
2021/04/11 08:17:47;;;;;;;9.65;2.55;;;;;;;14.35;57.71;99548.16;20747137;28;20573;-69
2021/04/11 08:28:38;;;;;;;5.82;2.08;;;;;;;15.02;56.47;99537.19;20752459;28;20054;-69
2021/04/11 08:39:11;;;;;;;8.20;1.98;;;;;;;15.17;55.69;99545.56;20750913;28;20045;-69
2021/04/11 08:49:33;;;;;;;5.90;2.72;;;;;;;15.58;53.64;99548.09;20749868;28;20537;-69
2021/04/11 08:59:48;;;;;;;7.68;2.10;;;;;;;15.34;53.64;99547.56;20749347;28;20050;-69
2021/04/11 09:09:53;;;;;;;5.50;1.80;;;;;;;15.80;53.01;99539.09;20748217;28;20097;-69
2021/04/11 09:20:13;;;;;;;3.80;1.60;;;;;;;15.88;52.66;99539.25;20903784;28;20049;-69
2021/04/11 09:30:30;;;;;;;4.60;1.50;;;;;;;15.41;53.35;99554.81;20910002;28;20115;-69
2021/04/11 09:41:00;;;;;;;7.07;2.20;;;;;;;15.25;53.75;99556.28;20911312;28;20053;-69
2021/04/11 09:51:23;;;;;;;5.22;2.25;;;;;;;15.32;53.44;99566.16;20878842;28;20049;-69
2021/04/11 10:01:33;;;;;;;3.85;1.67;;;;;;;15.19;53.09;99583.16;20902893;28;20045;-69
2021/04/11 10:12:11;;;;;;;4.07;1.35;;;;;;;15.14;53.56;99567.75;20909085;28;20071;-69
2021/04/11 10:22:35;;;;;;;5.20;2.22;;;;;;;16.29;51.43;99558.44;20919169;28;20076;-69
2021/04/11 10:33:00;;;;;;;3.40;1.50;;;;;;;15.84;51.61;99580.09;20927748;28;20124;-70
2021/04/11 10:43:28;;;;;;;;;;;;;;;15.25;57.53;99593.19;20912217;28;20123;-70
2021/04/11 10:53:57;;;;;;;5.70;1.80;;;;;;;15.50;58.11;99595.38;20905401;28;19920;-69
2021/04/11 11:04:22;;;;;;;3.42;1.50;;;;;;;15.98;53.56;99573.56;20903982;28;20053;-69
2021/04/11 11:14:41;;;;;;;5.70;1.88;;;;;;;16.35;52.57;99557.88;20903775;28;20056;-69
2021/04/11 11:25:13;;;;;;;6.20;1.70;;;;;;;16.77;52.09;99555.72;20903621;28;20049;-69
2021/04/11 11:35:15;;;;;;;6.35;2.30;;;;;;;16.79;52.04;99559.91;20902444;28;20483;-69
2021/04/11 11:45:41;;;;;;;3.58;1.20;;;;;;;16.39;52.27;99559.25;20902404;28;20057;-69
2021/04/11 11:55:56;;;;;;;4.60;1.40;;;;;;;16.83;52.36;99566.56;20918566;28;20052;-69
2021/04/11 12:06:10;;;;;;;3.37;1.30;;;;;;;16.26;52.52;99564.81;20917967;28;20045;-68
2021/04/11 12:16:21;;;;;;;2.50;1.17;;;;;;;16.47;52.45;99565.50;20870959;28;20049;-69
2021/04/11 12:26:26;;;;;;;4.57;1.10;;;;;;;16.79;52.18;99551.97;20833580;28;20505;-68
2021/04/11 12:36:52;;;;;;;3.13;1.37;;;;;;;16.01;54.10;99555.63;20833197;28;20057;-69
2021/04/11 12:47:22;;;;;;;6.63;1.58;;;;;;;16.08;53.89;99562.03;20832021;28;20695;-68
2021/04/11 12:57:31;;;;;;;5.25;1.40;;;;;;;16.65;52.83;99552.44;20830205;28;20084;-69
2021/04/11 13:07:45;;;;;;;4.38;1.50;;;;;;;16.48;53.17;99556.59;20830489;28;20049;-69
2021/04/11 13:18:02;;;;;;;3.87;1.50;;;;;;;15.36;56.55;99583.38;20830040;28;20045;-69
2021/04/11 13:28:24;;;;;;;3.25;1.38;;;;;;;14.74;61.16;99606.38;20829513;28;20076;-69
2021/04/11 13:38:25;;;;;;;4.80;1.38;;;;;;;14.44;62.50;99642.19;20828692;28;20389;-69
2021/04/11 13:48:47;;;;;;;4.47;1.20;;;;;;;14.22;64.27;99647.50;20826839;28;20057;-68
2021/04/11 13:58:55;;;;;;;4.85;1.67;;;;;;;14.11;65.14;99640.50;20826778;28;20092;-69
2021/04/11 14:09:09;;;;;;;2.58;1.17;;;;;;;13.85;66.81;99647.00;20825193;28;20049;-68
2021/04/11 14:19:24;;;;;;;3.20;1.20;;;;;;;13.56;68.98;99645.84;20824256;28;20049;-68
2021/04/11 14:29:33;;;;;;;7.00;1.43;;;;;;;13.13;75.98;99650.97;20822048;28;20057;-69
2021/04/11 14:39:43;;;;;;;3.30;1.52;;;;;;;12.72;81.98;99665.41;20823383;28;20096;-69
2021/04/11 14:49:44;;;;;;;4.25;1.67;;;;;;;12.46;87.30;99703.25;20823196;28;20104;-69
2021/04/11 14:59:57;;;;;;;6.78;1.70;;;;;;;12.15;93.37;99735.25;20822911;28;20049;-70
2021/04/11 15:10:16;;;;;;;4.75;1.88;;;;;;;12.02;95.81;99760.69;20820787;28;20050;-69
2021/04/11 15:20:22;;;;;;;8.35;2.08;;;;;;;11.85;99.79;99754.84;20901978;28;20041;-69
2021/04/11 15:30:29;;;;;;;7.35;2.00;;;;;;;11.76;100.00;99773.84;20903297;28;20107;-70
2021/04/11 15:40:57;;;;;;;5.45;2.20;;;;;;;11.77;100.00;99795.66;20915295;28;20107;-69
2021/04/11 15:51:27;;;;;;;4.60;2.50;;;;;;;11.72;100.00;99809.06;20923757;28;20107;-70
2021/04/11 16:01:37;;;;;;;4.72;2.20;;;;;;;11.59;100.00;99823.94;20908566;28;20385;-69
2021/04/11 16:11:48;;;;;;;4.97;2.58;;;;;;;11.63;100.00;99828.00;20891006;28;20072;-69
2021/04/11 16:22:13;;;;;;;4.20;1.90;;;;;;;11.47;100.00;99838.72;20819587;28;20046;-69
2021/04/11 16:32:39;;;;;;;6.07;3.20;;;;;;;11.57;100.00;99842.41;20818391;28;20046;-69
2021/04/11 16:43:00;;;;;;;5.85;2.30;;;;;;;11.36;100.00;99848.22;20832366;28;20220;-69
2021/04/11 16:53:12;;;;;;;5.00;1.83;;;;;;;11.22;100.00;99867.47;20832085;28;20107;-69
2021/04/11 17:03:13;;;;;;;5.25;2.05;;;;;;;10.90;100.00;99919.31;20830867;28;20076;-69
2021/04/11 17:13:22;;;;;;;7.90;4.10;;;;;;;7.67;100.00;99948.91;20835287;28;20124;-69
2021/04/11 17:23:37;;;;;;;5.40;3.03;;;;;;;6.24;100.00;99977.31;20912303;28;20107;-69
2021/04/11 17:34:10;;;;;;;8.60;4.45;;;;;;;6.13;100.00;99988.19;20910895;28;20566;-68
2021/04/11 17:44:27;;;;;;;9.27;5.28;;;;;;;5.87;100.00;100007.44;20908232;28;20075;-68
2021/04/11 17:54:42;;;;;;;7.65;5.28;;;;;;;5.68;100.00;100031.59;20910646;28;20095;-70
2021/04/11 18:04:49;;;;;;;8.10;5.88;;;;;;;5.51;100.00;100045.25;20909128;28;20045;-68
2021/04/11 18:15:02;;;;;;;7.18;4.15;;;;;;;5.30;100.00;100062.50;20873869;28;20119;-70
2021/04/11 18:25:28;;;;;;;6.97;4.60;;;;;;;5.00;100.00;100105.13;20825148;28;20490;-69
2021/04/11 18:35:56;;;;;;;6.05;4.10;;;;;;;4.80;100.00;100124.00;20823824;28;20564;-69
2021/04/11 18:46:22;;;;;;;6.75;3.70;;;;;;;4.61;100.00;100148.88;20823763;28;20520;-68
2021/04/11 18:56:30;;;;;;;7.27;4.07;;;;;;;4.51;100.00;100176.84;20822807;28;20045;-69
2021/04/11 19:06:42;;;;;;;6.35;3.75;;;;;;;4.45;100.00;100202.09;20821361;28;20055;-69
2021/04/11 19:16:57;;;;;;;7.63;4.10;;;;;;;4.52;100.00;100219.16;20872685;28;20136;-69
2021/04/11 19:27:04;;;;;;;7.20;4.13;;;;;;;4.32;100.00;100239.69;20903338;28;20068;-69
2021/04/11 19:37:35;;;;;;;7.75;4.80;;;;;;;4.35;100.00;100255.97;20901995;28;20048;-69
2021/04/11 19:48:16;;;;;;;7.28;4.28;;;;;;;4.34;100.00;100264.63;20902890;28;20049;-69
2021/04/11 19:58:38;;;;;;;6.70;3.90;;;;;;;4.23;100.00;100275.31;20902300;28;20095;-69
2021/04/11 20:09:01;;;;;;;7.88;4.30;;;;;;;3.92;100.00;100296.97;20903408;28;20045;-70
2021/04/11 20:19:18;;;;;;;8.73;5.25;;;;;;;3.85;100.00;100323.06;20847209;28;20555;-69
2021/04/11 20:29:34;;;;;;;8.35;4.75;;;;;;;3.67;100.00;100335.63;20834079;28;20533;-69
2021/04/11 20:39:48;;;;;;;9.23;5.60;;;;;;;3.58;100.00;100339.34;20833142;28;20100;-69
2021/04/11 20:50:16;;;;;;;11.45;6.78;;;;;;;3.59;100.00;100366.06;20845616;28;20482;-68
2021/04/11 21:00:38;;;;;;;11.02;6.47;;;;;;;3.60;100.00;100383.28;20857262;28;20497;-68
2021/04/11 21:11:04;;;;;;;11.57;7.18;;;;;;;3.62;100.00;100397.88;20833087;28;20050;-67
2021/04/11 21:21:44;;;;;;;11.07;7.00;;;;;;;3.54;100.00;100427.44;20911015;28;20065;-68
2021/04/11 21:31:53;;;;;;;9.40;6.32;;;;;;;3.44;100.00;100443.19;20887829;28;20052;-68
2021/04/11 21:42:07;;;;;;;8.57;6.00;;;;;;;3.44;100.00;100460.44;20910452;28;20051;-68
2021/04/11 21:52:30;;;;;;;11.73;7.30;;;;;;;3.43;100.00;100477.72;20910081;28;20103;-67
2021/04/11 22:02:51;;;;;;;11.57;6.68;;;;;;;3.52;100.00;100501.66;20882601;28;20053;-68
2021/04/11 22:13:00;;;;;;;9.52;5.13;;;;;;;3.45;100.00;100514.72;20805747;28;20045;-68
2021/04/11 22:23:17;;;;;;;12.48;7.07;;;;;;;3.62;100.00;100542.81;20824347;28;20049;-67
2021/04/11 22:33:41;;;;;;;10.63;6.25;;;;;;;3.58;100.00;100553.28;20821889;28;20095;-68
2021/04/11 22:43:57;;;;;;;11.82;6.85;;;;;;;3.63;100.00;100579.91;20821476;28;20053;-68
2021/04/11 22:54:14;;;;;;;13.23;7.35;;;;;;;3.69;100.00;100584.94;20816689;28;20053;-68
2021/04/11 23:04:36;;;;;;;13.35;7.47;;;;;;;3.82;100.00;100607.91;20820560;28;20055;-68
2021/04/11 23:14:45;;;;;;;12.07;6.72;;;;;;;3.82;100.00;100610.50;20820536;28;20049;-68
2021/04/11 23:24:53;;;;;;;11.82;6.93;;;;;;;3.82;100.00;100632.94;20846709;22;20045;-71
2021/04/11 23:35:00;;;;;;;10.80;6.70;;;;;;;3.64;100.00;100625.59;20819205;28;20046;-72
2021/04/11 23:45:25;;;;;;;12.30;7.30;;;;;;;3.87;100.00;100652.66;20821887;28;20060;-73
2021/04/11 23:55:31;;;;;;;12.10;7.30;;;;;;;3.71;100.00;100673.72;20835735;28;20068;-73
